sensor_id;sensor_type;location;lat;lon;timestamp;P1;durP1;ratioP1;P2;durP2;ratioP2
33830;SDS011;20137;48.834;8.732;2023-06-24T00:01:35;7.10;;;5.32;;
33830;SDS011;20137;48.834;8.732;2023-06-24T00:04:03;8.32;;;5.45;;
33830;SDS011;20137;48.834;8.732;2023-06-24T00:06:29;6.63;;;5.20;;
33830;SDS011;20137;48.834;8.732;2023-06-24T00:08:55;6.90;;;5.05;;
33830;SDS011;20137;48.834;8.732;2023-06-24T00:11:29;7.43;;;5.20;;
33830;SDS011;20137;48.834;8.732;2023-06-24T00:13:55;11.77;;;5.18;;
33830;SDS011;20137;48.834;8.732;2023-06-24T00:16:21;6.65;;;5.28;;
33830;SDS011;20137;48.834;8.732;2023-06-24T00:18:52;9.48;;;5.00;;
33830;SDS011;20137;48.834;8.732;2023-06-24T00:21:26;9.05;;;5.22;;
33830;SDS011;20137;48.834;8.732;2023-06-24T00:23:58;7.43;;;4.80;;
33830;SDS011;20137;48.834;8.732;2023-06-24T00:26:27;7.85;;;4.63;;
33830;SDS011;20137;48.834;8.732;2023-06-24T00:28:53;8.25;;;5.28;;
33830;SDS011;20137;48.834;8.732;2023-06-24T00:31:19;7.72;;;5.28;;
33830;SDS011;20137;48.834;8.732;2023-06-24T00:33:45;8.80;;;5.55;;
33830;SDS011;20137;48.834;8.732;2023-06-24T00:36:11;8.30;;;5.53;;
33830;SDS011;20137;48.834;8.732;2023-06-24T00:38:37;7.40;;;5.20;;
33830;SDS011;20137;48.834;8.732;2023-06-24T00:41:04;7.90;;;5.20;;
33830;SDS011;20137;48.834;8.732;2023-06-24T00:43:30;8.65;;;4.95;;
33830;SDS011;20137;48.834;8.732;2023-06-24T00:45:57;8.00;;;5.00;;
33830;SDS011;20137;48.834;8.732;2023-06-24T00:48:23;8.90;;;4.90;;
33830;SDS011;20137;48.834;8.732;2023-06-24T00:50:49;6.97;;;4.85;;
33830;SDS011;20137;48.834;8.732;2023-06-24T00:53:16;7.35;;;4.95;;
33830;SDS011;20137;48.834;8.732;2023-06-24T00:55:43;7.38;;;5.22;;
33830;SDS011;20137;48.834;8.732;2023-06-24T00:58:10;9.65;;;5.43;;
33830;SDS011;20137;48.834;8.732;2023-06-24T01:00:41;8.23;;;4.97;;
33830;SDS011;20137;48.834;8.732;2023-06-24T01:03:11;7.45;;;4.80;;
33830;SDS011;20137;48.834;8.732;2023-06-24T01:05:41;8.63;;;4.95;;
33830;SDS011;20137;48.834;8.732;2023-06-24T01:08:09;9.05;;;5.30;;
33830;SDS011;20137;48.834;8.732;2023-06-24T01:10:40;6.65;;;4.90;;
33830;SDS011;20137;48.834;8.732;2023-06-24T01:13:07;6.53;;;5.10;;
33830;SDS011;20137;48.834;8.732;2023-06-24T01:15:33;7.93;;;5.38;;
33830;SDS011;20137;48.834;8.732;2023-06-24T01:21:04;7.68;;;5.70;;
33830;SDS011;20137;48.834;8.732;2023-06-24T01:32:26;11.45;;;5.40;;
33830;SDS011;20137;48.834;8.732;2023-06-24T01:35:07;10.68;;;5.38;;
33830;SDS011;20137;48.834;8.732;2023-06-24T01:37:42;7.78;;;5.25;;
33830;SDS011;20137;48.834;8.732;2023-06-24T01:42:58;9.80;;;5.93;;
33830;SDS011;20137;48.834;8.732;2023-06-24T01:45:32;8.55;;;5.97;;
33830;SDS011;20137;48.834;8.732;2023-06-24T01:48:09;8.80;;;6.10;;
33830;SDS011;20137;48.834;8.732;2023-06-24T01:50:39;6.97;;;5.20;;
33830;SDS011;20137;48.834;8.732;2023-06-24T01:53:15;7.82;;;5.85;;
33830;SDS011;20137;48.834;8.732;2023-06-24T01:55:43;8.73;;;5.40;;
33830;SDS011;20137;48.834;8.732;2023-06-24T01:58:10;8.73;;;6.35;;
33830;SDS011;20137;48.834;8.732;2023-06-24T02:00:38;6.97;;;5.63;;
33830;SDS011;20137;48.834;8.732;2023-06-24T02:03:05;8.80;;;6.30;;
33830;SDS011;20137;48.834;8.732;2023-06-24T02:05:33;10.07;;;6.13;;
33830;SDS011;20137;48.834;8.732;2023-06-24T02:08:01;7.90;;;5.75;;
33830;SDS011;20137;48.834;8.732;2023-06-24T02:10:29;9.05;;;6.75;;
33830;SDS011;20137;48.834;8.732;2023-06-24T02:12:55;8.48;;;6.13;;
33830;SDS011;20137;48.834;8.732;2023-06-24T02:15:22;10.63;;;6.15;;
33830;SDS011;20137;48.834;8.732;2023-06-24T02:17:49;7.50;;;5.97;;
33830;SDS011;20137;48.834;8.732;2023-06-24T02:20:16;8.70;;;5.82;;
33830;SDS011;20137;48.834;8.732;2023-06-24T02:22:44;8.70;;;6.65;;
33830;SDS011;20137;48.834;8.732;2023-06-24T02:25:11;7.28;;;6.25;;
33830;SDS011;20137;48.834;8.732;2023-06-24T02:27:37;8.80;;;6.30;;
33830;SDS011;20137;48.834;8.732;2023-06-24T02:30:04;10.10;;;6.45;;
33830;SDS011;20137;48.834;8.732;2023-06-24T02:32:31;9.15;;;5.93;;
33830;SDS011;20137;48.834;8.732;2023-06-24T02:34:57;11.60;;;6.38;;
33830;SDS011;20137;48.834;8.732;2023-06-24T02:37:24;9.13;;;6.80;;
33830;SDS011;20137;48.834;8.732;2023-06-24T02:39:50;10.50;;;6.30;;
33830;SDS011;20137;48.834;8.732;2023-06-24T02:42:15;8.18;;;6.47;;
33830;SDS011;20137;48.834;8.732;2023-06-24T02:44:42;7.20;;;5.68;;
33830;SDS011;20137;48.834;8.732;2023-06-24T02:47:09;10.05;;;6.47;;
33830;SDS011;20137;48.834;8.732;2023-06-24T02:49:37;10.27;;;6.57;;
33830;SDS011;20137;48.834;8.732;2023-06-24T02:52:05;10.85;;;6.65;;
33830;SDS011;20137;48.834;8.732;2023-06-24T02:54:31;10.57;;;6.53;;
33830;SDS011;20137;48.834;8.732;2023-06-24T02:56:58;8.10;;;6.60;;
33830;SDS011;20137;48.834;8.732;2023-06-24T02:59:24;10.20;;;6.25;;
33830;SDS011;20137;48.834;8.732;2023-06-24T03:01:51;8.80;;;6.57;;
33830;SDS011;20137;48.834;8.732;2023-06-24T03:04:18;8.65;;;6.65;;
33830;SDS011;20137;48.834;8.732;2023-06-24T03:06:45;9.10;;;7.10;;
33830;SDS011;20137;48.834;8.732;2023-06-24T03:09:11;10.70;;;6.55;;
33830;SDS011;20137;48.834;8.732;2023-06-24T03:11:41;7.13;;;6.05;;
33830;SDS011;20137;48.834;8.732;2023-06-24T03:14:07;10.80;;;5.85;;
33830;SDS011;20137;48.834;8.732;2023-06-24T03:16:33;8.23;;;6.10;;
33830;SDS011;20137;48.834;8.732;2023-06-24T03:18:59;7.95;;;6.00;;
33830;SDS011;20137;48.834;8.732;2023-06-24T03:21:25;10.38;;;6.85;;
33830;SDS011;20137;48.834;8.732;2023-06-24T03:23:53;9.35;;;6.35;;
33830;SDS011;20137;48.834;8.732;2023-06-24T03:26:19;9.07;;;6.90;;
33830;SDS011;20137;48.834;8.732;2023-06-24T03:28:45;11.02;;;6.82;;
33830;SDS011;20137;48.834;8.732;2023-06-24T03:31:11;8.65;;;6.30;;
33830;SDS011;20137;48.834;8.732;2023-06-24T03:33:40;8.73;;;6.18;;
33830;SDS011;20137;48.834;8.732;2023-06-24T03:36:10;8.60;;;6.13;;
33830;SDS011;20137;48.834;8.732;2023-06-24T03:38:36;8.77;;;5.72;;
33830;SDS011;20137;48.834;8.732;2023-06-24T03:41:02;9.75;;;5.85;;
33830;SDS011;20137;48.834;8.732;2023-06-24T03:43:28;8.43;;;5.80;;
33830;SDS011;20137;48.834;8.732;2023-06-24T03:45:54;8.27;;;5.63;;
33830;SDS011;20137;48.834;8.732;2023-06-24T03:48:20;8.13;;;5.90;;
33830;SDS011;20137;48.834;8.732;2023-06-24T03:50:46;9.88;;;6.43;;
33830;SDS011;20137;48.834;8.732;2023-06-24T03:53:11;7.25;;;5.22;;
33830;SDS011;20137;48.834;8.732;2023-06-24T03:55:37;7.00;;;5.45;;
33830;SDS011;20137;48.834;8.732;2023-06-24T03:58:03;7.78;;;5.35;;
33830;SDS011;20137;48.834;8.732;2023-06-24T04:00:29;7.65;;;5.30;;
33830;SDS011;20137;48.834;8.732;2023-06-24T04:02:54;7.05;;;5.30;;
33830;SDS011;20137;48.834;8.732;2023-06-24T04:05:20;8.65;;;5.00;;
33830;SDS011;20137;48.834;8.732;2023-06-24T04:07:47;7.28;;;4.85;;
33830;SDS011;20137;48.834;8.732;2023-06-24T04:10:13;5.38;;;4.53;;
33830;SDS011;20137;48.834;8.732;2023-06-24T04:12:39;6.45;;;4.60;;
33830;SDS011;20137;48.834;8.732;2023-06-24T04:15:05;8.32;;;4.72;;
33830;SDS011;20137;48.834;8.732;2023-06-24T04:17:31;6.40;;;5.00;;
33830;SDS011;20137;48.834;8.732;2023-06-24T04:19:57;5.60;;;4.38;;
33830;SDS011;20137;48.834;8.732;2023-06-24T04:22:24;7.88;;;5.38;;
33830;SDS011;20137;48.834;8.732;2023-06-24T04:24:50;8.10;;;5.38;;
33830;SDS011;20137;48.834;8.732;2023-06-24T04:27:16;6.32;;;5.07;;
33830;SDS011;20137;48.834;8.732;2023-06-24T04:29:42;7.13;;;5.25;;
33830;SDS011;20137;48.834;8.732;2023-06-24T04:32:07;8.68;;;5.30;;
33830;SDS011;20137;48.834;8.732;2023-06-24T04:34:33;6.22;;;5.00;;
33830;SDS011;20137;48.834;8.732;2023-06-24T04:36:59;5.57;;;4.47;;
33830;SDS011;20137;48.834;8.732;2023-06-24T04:39:25;10.70;;;5.75;;
33830;SDS011;20137;48.834;8.732;2023-06-24T04:41:50;7.53;;;5.28;;
33830;SDS011;20137;48.834;8.732;2023-06-24T04:44:16;6.93;;;5.00;;
33830;SDS011;20137;48.834;8.732;2023-06-24T04:46:42;7.03;;;5.00;;
33830;SDS011;20137;48.834;8.732;2023-06-24T04:49:08;6.15;;;4.90;;
33830;SDS011;20137;48.834;8.732;2023-06-24T04:51:34;7.25;;;5.00;;
33830;SDS011;20137;48.834;8.732;2023-06-24T04:54:00;4.28;;;3.88;;
33830;SDS011;20137;48.834;8.732;2023-06-24T04:56:27;4.90;;;4.40;;
33830;SDS011;20137;48.834;8.732;2023-06-24T04:58:53;5.47;;;4.57;;
33830;SDS011;20137;48.834;8.732;2023-06-24T05:01:19;7.15;;;4.70;;
33830;SDS011;20137;48.834;8.732;2023-06-24T05:03:45;7.63;;;4.47;;
33830;SDS011;20137;48.834;8.732;2023-06-24T05:06:12;9.68;;;4.57;;
33830;SDS011;20137;48.834;8.732;2023-06-24T05:08:38;4.00;;;3.50;;
33830;SDS011;20137;48.834;8.732;2023-06-24T05:11:03;6.32;;;4.15;;
33830;SDS011;20137;48.834;8.732;2023-06-24T05:13:30;5.78;;;4.22;;
33830;SDS011;20137;48.834;8.732;2023-06-24T05:15:55;5.75;;;3.80;;
33830;SDS011;20137;48.834;8.732;2023-06-24T05:18:21;5.13;;;3.92;;
33830;SDS011;20137;48.834;8.732;2023-06-24T05:20:47;5.32;;;4.30;;
33830;SDS011;20137;48.834;8.732;2023-06-24T05:23:12;4.50;;;3.95;;
33830;SDS011;20137;48.834;8.732;2023-06-24T05:25:38;5.70;;;3.97;;
33830;SDS011;20137;48.834;8.732;2023-06-24T05:28:07;5.35;;;3.92;;
33830;SDS011;20137;48.834;8.732;2023-06-24T05:30:33;6.43;;;4.10;;
33830;SDS011;20137;48.834;8.732;2023-06-24T05:32:59;5.45;;;4.13;;
33830;SDS011;20137;48.834;8.732;2023-06-24T05:35:25;6.28;;;4.40;;
33830;SDS011;20137;48.834;8.732;2023-06-24T05:37:51;6.35;;;3.95;;
33830;SDS011;20137;48.834;8.732;2023-06-24T05:40:17;8.82;;;4.45;;
33830;SDS011;20137;48.834;8.732;2023-06-24T05:42:42;6.00;;;4.82;;
33830;SDS011;20137;48.834;8.732;2023-06-24T05:45:08;5.80;;;4.68;;
33830;SDS011;20137;48.834;8.732;2023-06-24T05:47:34;6.43;;;4.65;;
33830;SDS011;20137;48.834;8.732;2023-06-24T05:50:00;8.00;;;4.88;;
33830;SDS011;20137;48.834;8.732;2023-06-24T05:52:26;6.75;;;4.75;;
33830;SDS011;20137;48.834;8.732;2023-06-24T05:54:53;5.90;;;4.60;;
33830;SDS011;20137;48.834;8.732;2023-06-24T05:57:19;7.03;;;5.13;;
33830;SDS011;20137;48.834;8.732;2023-06-24T05:59:45;8.25;;;5.03;;
33830;SDS011;20137;48.834;8.732;2023-06-24T06:02:11;6.70;;;4.43;;
33830;SDS011;20137;48.834;8.732;2023-06-24T06:04:38;6.93;;;4.65;;
33830;SDS011;20137;48.834;8.732;2023-06-24T06:07:04;7.53;;;4.93;;
33830;SDS011;20137;48.834;8.732;2023-06-24T06:09:30;8.40;;;5.03;;
33830;SDS011;20137;48.834;8.732;2023-06-24T06:11:56;7.00;;;4.55;;
33830;SDS011;20137;48.834;8.732;2023-06-24T06:14:22;8.88;;;5.25;;
33830;SDS011;20137;48.834;8.732;2023-06-24T06:16:47;7.10;;;5.18;;
33830;SDS011;20137;48.834;8.732;2023-06-24T06:19:13;7.63;;;4.90;;
33830;SDS011;20137;48.834;8.732;2023-06-24T06:21:39;9.05;;;5.43;;
33830;SDS011;20137;48.834;8.732;2023-06-24T06:24:05;6.43;;;5.43;;
33830;SDS011;20137;48.834;8.732;2023-06-24T06:26:31;7.22;;;4.97;;
33830;SDS011;20137;48.834;8.732;2023-06-24T06:28:57;5.63;;;4.57;;
33830;SDS011;20137;48.834;8.732;2023-06-24T06:31:23;6.45;;;5.30;;
33830;SDS011;20137;48.834;8.732;2023-06-24T06:33:51;7.03;;;5.22;;
33830;SDS011;20137;48.834;8.732;2023-06-24T06:36:17;5.43;;;4.50;;
33830;SDS011;20137;48.834;8.732;2023-06-24T06:38:42;9.43;;;5.18;;
33830;SDS011;20137;48.834;8.732;2023-06-24T06:41:08;4.75;;;4.28;;
33830;SDS011;20137;48.834;8.732;2023-06-24T06:43:37;6.90;;;4.72;;
33830;SDS011;20137;48.834;8.732;2023-06-24T06:46:03;7.93;;;4.95;;
33830;SDS011;20137;48.834;8.732;2023-06-24T06:48:29;7.05;;;5.13;;
33830;SDS011;20137;48.834;8.732;2023-06-24T06:50:55;6.70;;;4.97;;
33830;SDS011;20137;48.834;8.732;2023-06-24T06:53:21;7.07;;;5.30;;
33830;SDS011;20137;48.834;8.732;2023-06-24T06:55:47;6.35;;;5.07;;
33830;SDS011;20137;48.834;8.732;2023-06-24T06:58:12;6.07;;;4.90;;
33830;SDS011;20137;48.834;8.732;2023-06-24T07:00:38;7.43;;;5.32;;
33830;SDS011;20137;48.834;8.732;2023-06-24T07:03:04;8.35;;;4.70;;
33830;SDS011;20137;48.834;8.732;2023-06-24T07:05:30;7.95;;;4.80;;
33830;SDS011;20137;48.834;8.732;2023-06-24T07:07:56;5.40;;;4.43;;
33830;SDS011;20137;48.834;8.732;2023-06-24T07:10:22;6.57;;;4.78;;
33830;SDS011;20137;48.834;8.732;2023-06-24T07:12:47;7.95;;;5.00;;
33830;SDS011;20137;48.834;8.732;2023-06-24T07:15:13;8.05;;;5.03;;
33830;SDS011;20137;48.834;8.732;2023-06-24T07:17:39;6.45;;;5.03;;
33830;SDS011;20137;48.834;8.732;2023-06-24T07:20:05;7.13;;;5.15;;
33830;SDS011;20137;48.834;8.732;2023-06-24T07:22:31;6.65;;;5.43;;
33830;SDS011;20137;48.834;8.732;2023-06-24T07:24:57;9.10;;;5.22;;
33830;SDS011;20137;48.834;8.732;2023-06-24T07:27:23;6.78;;;5.03;;
33830;SDS011;20137;48.834;8.732;2023-06-24T07:29:49;7.07;;;5.22;;
33830;SDS011;20137;48.834;8.732;2023-06-24T07:32:15;6.63;;;4.78;;
33830;SDS011;20137;48.834;8.732;2023-06-24T07:34:40;7.50;;;4.60;;
33830;SDS011;20137;48.834;8.732;2023-06-24T07:37:06;6.70;;;5.07;;
33830;SDS011;20137;48.834;8.732;2023-06-24T07:39:31;6.47;;;4.90;;
33830;SDS011;20137;48.834;8.732;2023-06-24T07:41:57;7.05;;;4.53;;
33830;SDS011;20137;48.834;8.732;2023-06-24T07:44:23;7.70;;;5.22;;
33830;SDS011;20137;48.834;8.732;2023-06-24T07:46:49;7.38;;;5.10;;
33830;SDS011;20137;48.834;8.732;2023-06-24T07:49:16;5.70;;;4.57;;
33830;SDS011;20137;48.834;8.732;2023-06-24T07:51:43;6.25;;;4.60;;
33830;SDS011;20137;48.834;8.732;2023-06-24T07:54:10;9.70;;;4.30;;
33830;SDS011;20137;48.834;8.732;2023-06-24T07:56:36;6.97;;;4.35;;
33830;SDS011;20137;48.834;8.732;2023-06-24T07:59:02;5.93;;;4.85;;
33830;SDS011;20137;48.834;8.732;2023-06-24T08:01:28;6.72;;;4.40;;
33830;SDS011;20137;48.834;8.732;2023-06-24T08:03:53;5.88;;;4.00;;
33830;SDS011;20137;48.834;8.732;2023-06-24T08:06:19;5.68;;;4.07;;
33830;SDS011;20137;48.834;8.732;2023-06-24T08:08:45;9.30;;;4.18;;
33830;SDS011;20137;48.834;8.732;2023-06-24T08:11:11;5.28;;;3.97;;
33830;SDS011;20137;48.834;8.732;2023-06-24T08:13:38;6.55;;;3.40;;
33830;SDS011;20137;48.834;8.732;2023-06-24T08:16:04;4.45;;;3.38;;
33830;SDS011;20137;48.834;8.732;2023-06-24T08:18:29;4.95;;;3.60;;
33830;SDS011;20137;48.834;8.732;2023-06-24T08:20:58;5.53;;;3.92;;
33830;SDS011;20137;48.834;8.732;2023-06-24T08:23:25;4.95;;;3.45;;
33830;SDS011;20137;48.834;8.732;2023-06-24T08:25:51;5.97;;;4.20;;
33830;SDS011;20137;48.834;8.732;2023-06-24T08:28:16;4.57;;;3.33;;
33830;SDS011;20137;48.834;8.732;2023-06-24T08:30:42;6.05;;;3.70;;
33830;SDS011;20137;48.834;8.732;2023-06-24T08:33:08;5.55;;;3.70;;
33830;SDS011;20137;48.834;8.732;2023-06-24T08:35:36;5.25;;;3.72;;
33830;SDS011;20137;48.834;8.732;2023-06-24T08:38:02;7.35;;;4.00;;
33830;SDS011;20137;48.834;8.732;2023-06-24T08:40:28;5.45;;;3.97;;
33830;SDS011;20137;48.834;8.732;2023-06-24T08:42:54;7.00;;;4.50;;
33830;SDS011;20137;48.834;8.732;2023-06-24T08:45:20;5.15;;;3.50;;
33830;SDS011;20137;48.834;8.732;2023-06-24T08:47:46;4.88;;;3.63;;
33830;SDS011;20137;48.834;8.732;2023-06-24T08:50:15;4.45;;;3.42;;
33830;SDS011;20137;48.834;8.732;2023-06-24T08:52:44;5.20;;;3.90;;
33830;SDS011;20137;48.834;8.732;2023-06-24T08:55:15;5.43;;;3.85;;
33830;SDS011;20137;48.834;8.732;2023-06-24T08:57:42;5.00;;;3.20;;
33830;SDS011;20137;48.834;8.732;2023-06-24T09:00:08;5.50;;;3.42;;
33830;SDS011;20137;48.834;8.732;2023-06-24T09:02:36;4.38;;;3.50;;
33830;SDS011;20137;48.834;8.732;2023-06-24T09:05:05;5.60;;;3.30;;
33830;SDS011;20137;48.834;8.732;2023-06-24T09:07:31;5.40;;;3.88;;
33830;SDS011;20137;48.834;8.732;2023-06-24T09:09:57;5.45;;;3.70;;
33830;SDS011;20137;48.834;8.732;2023-06-24T09:12:26;5.55;;;3.78;;
33830;SDS011;20137;48.834;8.732;2023-06-24T09:14:53;5.18;;;3.72;;
33830;SDS011;20137;48.834;8.732;2023-06-24T09:17:19;5.38;;;3.70;;
33830;SDS011;20137;48.834;8.732;2023-06-24T09:19:47;5.63;;;3.60;;
33830;SDS011;20137;48.834;8.732;2023-06-24T09:22:13;6.15;;;4.32;;
33830;SDS011;20137;48.834;8.732;2023-06-24T09:24:46;6.03;;;3.47;;
33830;SDS011;20137;48.834;8.732;2023-06-24T09:27:13;5.93;;;3.90;;
33830;SDS011;20137;48.834;8.732;2023-06-24T09:29:40;4.93;;;3.50;;
33830;SDS011;20137;48.834;8.732;2023-06-24T09:32:07;4.97;;;3.75;;
33830;SDS011;20137;48.834;8.732;2023-06-24T09:34:33;5.55;;;3.78;;
33830;SDS011;20137;48.834;8.732;2023-06-24T09:36:59;4.43;;;3.80;;
33830;SDS011;20137;48.834;8.732;2023-06-24T09:39:34;5.90;;;3.58;;
33830;SDS011;20137;48.834;8.732;2023-06-24T09:42:01;6.50;;;3.38;;
33830;SDS011;20137;48.834;8.732;2023-06-24T09:44:34;6.10;;;4.13;;
33830;SDS011;20137;48.834;8.732;2023-06-24T09:47:00;7.68;;;4.00;;
33830;SDS011;20137;48.834;8.732;2023-06-24T09:49:26;4.28;;;3.38;;
33830;SDS011;20137;48.834;8.732;2023-06-24T09:51:56;5.07;;;3.83;;
33830;SDS011;20137;48.834;8.732;2023-06-24T09:54:24;4.30;;;3.22;;
33830;SDS011;20137;48.834;8.732;2023-06-24T09:56:52;4.90;;;3.60;;
33830;SDS011;20137;48.834;8.732;2023-06-24T09:59:19;6.18;;;3.70;;
33830;SDS011;20137;48.834;8.732;2023-06-24T10:01:46;4.38;;;3.28;;
33830;SDS011;20137;48.834;8.732;2023-06-24T10:04:15;4.65;;;3.33;;
33830;SDS011;20137;48.834;8.732;2023-06-24T10:06:42;5.60;;;3.55;;
33830;SDS011;20137;48.834;8.732;2023-06-24T10:09:08;7.68;;;3.83;;
33830;SDS011;20137;48.834;8.732;2023-06-24T10:11:44;4.47;;;3.22;;
33830;SDS011;20137;48.834;8.732;2023-06-24T10:14:11;3.47;;;3.05;;
33830;SDS011;20137;48.834;8.732;2023-06-24T10:16:38;4.72;;;2.97;;
33830;SDS011;20137;48.834;8.732;2023-06-24T10:19:05;3.88;;;3.10;;
33830;SDS011;20137;48.834;8.732;2023-06-24T10:21:44;4.35;;;3.30;;
33830;SDS011;20137;48.834;8.732;2023-06-24T10:27:18;4.72;;;3.20;;
33830;SDS011;20137;48.834;8.732;2023-06-24T10:29:48;4.75;;;2.85;;
33830;SDS011;20137;48.834;8.732;2023-06-24T10:32:21;4.72;;;3.50;;
33830;SDS011;20137;48.834;8.732;2023-06-24T10:34:53;4.28;;;3.10;;
33830;SDS011;20137;48.834;8.732;2023-06-24T10:37:21;5.82;;;3.25;;
33830;SDS011;20137;48.834;8.732;2023-06-24T10:39:53;5.13;;;3.55;;
33830;SDS011;20137;48.834;8.732;2023-06-24T10:47:39;5.55;;;3.33;;
33830;SDS011;20137;48.834;8.732;2023-06-24T10:50:10;5.70;;;3.92;;
33830;SDS011;20137;48.834;8.732;2023-06-24T10:52:40;6.05;;;3.20;;
33830;SDS011;20137;48.834;8.732;2023-06-24T10:55:07;3.80;;;2.70;;
33830;SDS011;20137;48.834;8.732;2023-06-24T10:57:34;4.63;;;2.88;;
33830;SDS011;20137;48.834;8.732;2023-06-24T11:00:00;4.07;;;3.28;;
33830;SDS011;20137;48.834;8.732;2023-06-24T11:02:32;5.13;;;3.60;;
33830;SDS011;20137;48.834;8.732;2023-06-24T11:04:59;5.05;;;3.33;;
33830;SDS011;20137;48.834;8.732;2023-06-24T11:07:30;4.38;;;3.05;;
33830;SDS011;20137;48.834;8.732;2023-06-24T11:10:01;4.55;;;3.38;;
33830;SDS011;20137;48.834;8.732;2023-06-24T11:12:31;4.22;;;3.20;;
33830;SDS011;20137;48.834;8.732;2023-06-24T11:14:58;4.30;;;3.17;;
33830;SDS011;20137;48.834;8.732;2023-06-24T11:17:27;4.82;;;3.20;;
33830;SDS011;20137;48.834;8.732;2023-06-24T11:19:54;5.25;;;3.22;;
33830;SDS011;20137;48.834;8.732;2023-06-24T11:22:21;6.95;;;3.45;;
33830;SDS011;20137;48.834;8.732;2023-06-24T11:24:47;3.97;;;3.10;;
33830;SDS011;20137;48.834;8.732;2023-06-24T11:27:13;4.35;;;3.00;;
33830;SDS011;20137;48.834;8.732;2023-06-24T11:29:48;7.47;;;3.33;;
33830;SDS011;20137;48.834;8.732;2023-06-24T11:32:34;3.97;;;3.20;;
33830;SDS011;20137;48.834;8.732;2023-06-24T11:35:07;4.90;;;2.90;;
33830;SDS011;20137;48.834;8.732;2023-06-24T11:37:34;4.03;;;2.92;;
33830;SDS011;20137;48.834;8.732;2023-06-24T11:40:04;5.07;;;2.88;;
33830;SDS011;20137;48.834;8.732;2023-06-24T11:42:32;4.30;;;2.97;;
33830;SDS011;20137;48.834;8.732;2023-06-24T11:45:03;5.95;;;3.13;;
33830;SDS011;20137;48.834;8.732;2023-06-24T11:47:33;4.03;;;3.10;;
33830;SDS011;20137;48.834;8.732;2023-06-24T11:49:59;4.53;;;3.40;;
33830;SDS011;20137;48.834;8.732;2023-06-24T11:55:17;6.35;;;3.70;;
33830;SDS011;20137;48.834;8.732;2023-06-24T11:57:57;5.00;;;3.13;;
33830;SDS011;20137;48.834;8.732;2023-06-24T12:00:30;3.42;;;3.00;;
33830;SDS011;20137;48.834;8.732;2023-06-24T12:03:10;5.93;;;3.45;;
33830;SDS011;20137;48.834;8.732;2023-06-24T12:05:37;5.25;;;3.60;;
33830;SDS011;20137;48.834;8.732;2023-06-24T12:08:06;4.18;;;3.30;;
33830;SDS011;20137;48.834;8.732;2023-06-24T12:10:34;4.20;;;2.83;;
33830;SDS011;20137;48.834;8.732;2023-06-24T12:13:01;4.65;;;3.40;;
33830;SDS011;20137;48.834;8.732;2023-06-24T12:15:28;4.25;;;3.58;;
33830;SDS011;20137;48.834;8.732;2023-06-24T12:17:54;4.97;;;3.35;;
33830;SDS011;20137;48.834;8.732;2023-06-24T12:20:20;5.88;;;3.47;;
33830;SDS011;20137;48.834;8.732;2023-06-24T12:22:47;4.75;;;3.08;;
33830;SDS011;20137;48.834;8.732;2023-06-24T12:25:13;4.18;;;3.30;;
33830;SDS011;20137;48.834;8.732;2023-06-24T12:27:41;3.60;;;3.10;;
33830;SDS011;20137;48.834;8.732;2023-06-24T12:30:08;4.38;;;3.30;;
33830;SDS011;20137;48.834;8.732;2023-06-24T12:32:35;4.95;;;3.50;;
33830;SDS011;20137;48.834;8.732;2023-06-24T12:35:01;4.32;;;3.05;;
33830;SDS011;20137;48.834;8.732;2023-06-24T12:37:31;4.22;;;2.92;;
33830;SDS011;20137;48.834;8.732;2023-06-24T12:39:58;4.38;;;2.72;;
33830;SDS011;20137;48.834;8.732;2023-06-24T12:42:25;3.55;;;2.90;;
33830;SDS011;20137;48.834;8.732;2023-06-24T12:44:54;3.70;;;2.80;;
33830;SDS011;20137;48.834;8.732;2023-06-24T12:47:21;4.85;;;3.20;;
33830;SDS011;20137;48.834;8.732;2023-06-24T12:49:47;4.63;;;2.65;;
33830;SDS011;20137;48.834;8.732;2023-06-24T12:52:14;4.50;;;3.22;;
33830;SDS011;20137;48.834;8.732;2023-06-24T12:54:40;4.50;;;2.70;;
33830;SDS011;20137;48.834;8.732;2023-06-24T12:57:06;4.35;;;2.83;;
33830;SDS011;20137;48.834;8.732;2023-06-24T12:59:32;6.93;;;3.47;;
33830;SDS011;20137;48.834;8.732;2023-06-24T13:01:58;3.63;;;2.58;;
33830;SDS011;20137;48.834;8.732;2023-06-24T13:04:27;3.58;;;2.78;;
33830;SDS011;20137;48.834;8.732;2023-06-24T13:06:53;3.40;;;2.75;;
33830;SDS011;20137;48.834;8.732;2023-06-24T13:09:19;3.50;;;2.70;;
33830;SDS011;20137;48.834;8.732;2023-06-24T13:11:47;3.70;;;2.72;;
33830;SDS011;20137;48.834;8.732;2023-06-24T13:14:14;5.07;;;3.15;;
33830;SDS011;20137;48.834;8.732;2023-06-24T13:16:40;4.45;;;3.17;;
33830;SDS011;20137;48.834;8.732;2023-06-24T13:19:05;4.82;;;3.25;;
33830;SDS011;20137;48.834;8.732;2023-06-24T13:21:31;5.65;;;3.00;;
33830;SDS011;20137;48.834;8.732;2023-06-24T13:23:57;4.57;;;3.03;;
33830;SDS011;20137;48.834;8.732;2023-06-24T13:26:23;6.35;;;3.53;;
33830;SDS011;20137;48.834;8.732;2023-06-24T13:28:49;3.70;;;3.10;;
33830;SDS011;20137;48.834;8.732;2023-06-24T13:31:15;3.58;;;2.80;;
33830;SDS011;20137;48.834;8.732;2023-06-24T13:33:41;4.72;;;3.22;;
33830;SDS011;20137;48.834;8.732;2023-06-24T13:36:07;4.75;;;2.90;;
33830;SDS011;20137;48.834;8.732;2023-06-24T13:38:37;4.15;;;3.30;;
33830;SDS011;20137;48.834;8.732;2023-06-24T13:41:02;5.05;;;3.15;;
33830;SDS011;20137;48.834;8.732;2023-06-24T13:43:28;4.65;;;3.20;;
33830;SDS011;20137;48.834;8.732;2023-06-24T13:45:54;7.75;;;3.30;;
33830;SDS011;20137;48.834;8.732;2023-06-24T13:48:20;3.45;;;2.80;;
33830;SDS011;20137;48.834;8.732;2023-06-24T13:50:46;3.88;;;2.80;;
33830;SDS011;20137;48.834;8.732;2023-06-24T13:53:12;6.25;;;3.05;;
33830;SDS011;20137;48.834;8.732;2023-06-24T13:55:37;5.60;;;3.05;;
33830;SDS011;20137;48.834;8.732;2023-06-24T13:58:03;4.32;;;3.28;;
33830;SDS011;20137;48.834;8.732;2023-06-24T14:00:29;4.85;;;3.17;;
33830;SDS011;20137;48.834;8.732;2023-06-24T14:02:55;4.35;;;3.05;;
33830;SDS011;20137;48.834;8.732;2023-06-24T14:05:21;4.03;;;3.10;;
33830;SDS011;20137;48.834;8.732;2023-06-24T14:07:46;4.40;;;3.22;;
33830;SDS011;20137;48.834;8.732;2023-06-24T14:10:12;4.25;;;3.20;;
33830;SDS011;20137;48.834;8.732;2023-06-24T14:12:38;3.03;;;2.45;;
33830;SDS011;20137;48.834;8.732;2023-06-24T14:15:07;4.53;;;3.13;;
33830;SDS011;20137;48.834;8.732;2023-06-24T14:17:34;4.88;;;2.92;;
33830;SDS011;20137;48.834;8.732;2023-06-24T14:19:59;6.22;;;3.15;;
33830;SDS011;20137;48.834;8.732;2023-06-24T14:22:25;4.00;;;2.88;;
33830;SDS011;20137;48.834;8.732;2023-06-24T14:24:51;4.57;;;3.33;;
33830;SDS011;20137;48.834;8.732;2023-06-24T14:27:17;3.92;;;2.88;;
33830;SDS011;20137;48.834;8.732;2023-06-24T14:29:43;6.32;;;3.78;;
33830;SDS011;20137;48.834;8.732;2023-06-24T14:32:09;4.75;;;2.78;;
33830;SDS011;20137;48.834;8.732;2023-06-24T14:34:35;4.45;;;2.85;;
33830;SDS011;20137;48.834;8.732;2023-06-24T14:37:01;3.78;;;3.10;;
33830;SDS011;20137;48.834;8.732;2023-06-24T14:39:26;4.60;;;3.30;;
33830;SDS011;20137;48.834;8.732;2023-06-24T14:41:53;3.80;;;3.00;;
33830;SDS011;20137;48.834;8.732;2023-06-24T14:44:19;4.88;;;2.90;;
33830;SDS011;20137;48.834;8.732;2023-06-24T14:46:45;6.20;;;3.08;;
33830;SDS011;20137;48.834;8.732;2023-06-24T14:49:10;5.72;;;2.95;;
33830;SDS011;20137;48.834;8.732;2023-06-24T14:51:36;4.32;;;2.88;;
33830;SDS011;20137;48.834;8.732;2023-06-24T14:54:02;4.95;;;3.58;;
33830;SDS011;20137;48.834;8.732;2023-06-24T14:56:28;4.38;;;3.40;;
33830;SDS011;20137;48.834;8.732;2023-06-24T14:58:54;4.55;;;3.15;;
33830;SDS011;20137;48.834;8.732;2023-06-24T15:01:19;3.35;;;2.67;;
33830;SDS011;20137;48.834;8.732;2023-06-24T15:03:45;4.15;;;3.05;;
33830;SDS011;20137;48.834;8.732;2023-06-24T15:06:11;4.65;;;3.00;;
33830;SDS011;20137;48.834;8.732;2023-06-24T15:08:37;3.90;;;3.35;;
33830;SDS011;20137;48.834;8.732;2023-06-24T15:11:02;4.72;;;3.35;;
33830;SDS011;20137;48.834;8.732;2023-06-24T15:13:29;6.75;;;3.20;;